Impacts METAR Board
IDs:

KTPA - Tampa Intl Arpt, FL, US

Updated at: 0100 UTC 31 May 2020
Potential Impact None Slight Moderate High
Time 30/13Z 30/14Z 30/15Z 30/16Z 30/17Z 30/18Z 30/19Z 30/20Z 30/21Z 30/22Z 30/23Z 31/00Z 31/01Z
Temp80 81 84 87 89 86 85 88 90 88 86 84 82
Dewpt70 71 70 69 67 69 71 69 69 68 69 68 68
Altim30.05 30.05 30.04 30.04 30.02 30.01 30.00 29.99 29.97 29.96 29.96 29.98 30.01
VIS10 10 10 10 10 10 7 10 10 10 10 10 10
CIG-- -- 300 -- -- -- 37 42 320 320 -- -- --
CoverSCTSCTBKNSCTSCTSCTBKNBKNBKNBKNSCTSCTSCT
FltCatVFRVFRVFRVFRVFRVFRVFRVFRVFRVFRVFRVFRVFR
WX--------VCTS--VCTS -RA------------
WDir0220240230240220230280310300310320320
WSpd0 4 3 4 6 11 7 10 10 13 11 8 5
WGst-- -- -- -- -- -- -- -- -- -- -- -- --
Raw hourly METARs
KTPA 301253Z 00000KT 10SM FEW170 SCT300 27/21 A3005 RMK AO2 SLP176 T02670211
KTPA 301353Z 22004KT 10SM FEW170 SCT300 27/22 A3005 RMK AO2 SLP173 T02720217
KTPA 301453Z 24003KT 10SM FEW032 SCT160 BKN300 29/21 A3004 RMK AO2 SLP173 T02890211 58001
KTPA 301553Z 23004KT 10SM FEW035TCU SCT140 SCT280 31/21 A3004 RMK AO2 SLP172 TCU N-E AND DSNT SW-NW T03060206
KTPA 301653Z 24006KT 10SM VCTS SCT040TCU SCT280 32/19 A3002 RMK AO2 SLP166 CB DSNT SW TCU NW-NE SHRA DSNT SW T03170194
KTPA 301753Z 22011KT 10SM SCT040TCU SCT280 30/21 A3001 RMK AO2 SLP162 TCU W-NE AND DSNT ALQDS T03000206 10317 20250 58010
KTPA 301853Z 23007KT 7SM VCTS -RA BKN037TCU BKN330 29/22 A3000 RMK AO2 RAB29 SLP158 TCU ALQDS P0002 T02940217
KTPA 301953Z 28010KT 10SM BKN042TCU BKN330 31/21 A2999 RMK AO2 RAE23 TSB07E42 SLP154 TCU ALQDS P0000 T03110206
KTPA 302053Z 31010KT 10SM SCT055TCU BKN320 32/21 A2997 RMK AO2 SLP149 CB DSNT SE TCU N-S 60002 T03220206 58013
KTPA 302153Z 30013KT 10SM SCT040TCU BKN320 31/20 A2996 RMK AO2 SLP144 CB DSNT E AND SE TCU E-S T03110200
KTPA 302253Z 31011KT 10SM SCT040TCU SCT340 30/21 A2996 RMK AO2 SLP143 CB DSNT E-SE TCU N-S T03000206
KTPA 302353Z 32008KT 10SM FEW038TCU SCT320 29/20 A2998 RMK AO2 SLP151 CB DSNT E TCU N-S 60002 T02890200 10328 20289 53002
KTPA 310053Z 32005KT 10SM SCT230 28/20 A3001 RMK AO2 SLP160 T02780200



Page loaded:  01:40 UTC  |   06:40 PM Pacific  |   07:40 PM Mountain  |   08:40 PM Central  |   09:40 PM Eastern

 

ADVISORIES

FORECASTS

FORECASTS

OBSERVATIONS

USER TOOLS

ABOUT US